Latest Weather Observations for Collie East

IDW60801

Issued at 8:23 pm WST Friday 20 July 2018 (issued every 10 minutes, with the page automatically refreshed every 10 minutes)

About weather observations | Map of weather stations | Latest weather observations for WA | Other Formats
Station Details ID: 009994 Name: COLLIE EAST Lat: -33.36 Lon: 116.17 Height: 200.0 m
Data from the previous 72 hours. | See also: Recent months at Collie East
Date/Time
WST
Temp
°C
App
Temp
°C
Dew
Point
°C
Rel
Hum
%
Delta-T
°C
Wind Press
QNH
hPa
Press
MSL
hPa
Rain since
9am
mm
Dir  Spd
km/h
Gust
km/h
Spd
kts
Gust
kts
20/08:00pm 15.1 12.9 12.2 83 1.6 NNW 15 24 8 13 - - 1.8
20/07:30pm 14.6 12.8 12.1 85 1.4 NNW 13 22 7 12 - - 1.8
20/07:00pm 14.4 13.0 12.3 87 1.2 NNW 11 22 6 12 - - 1.8
20/06:30pm 14.1 11.9 12.0 87 1.1 NNW 15 24 8 13 - - 1.8
20/06:00pm 14.1 12.7 12.1 88 1.1 NNW 11 22 6 12 - - 1.8
20/05:30pm 14.2 12.9 12.6 90 0.9 NW 11 26 6 14 - - 1.6
20/05:00pm 14.4 12.7 12.6 89 1.0 NW 13 20 7 11 - - 1.2
20/04:30pm 14.5 12.8 12.5 88 1.1 NW 13 20 7 11 - - 0.8
20/04:00pm 14.2 12.2 12.6 90 0.9 NW 15 33 8 18 - - 0.8
20/03:30pm 14.4 11.6 12.6 89 1.0 NW 19 41 10 22 - - 0.6
20/03:00pm 15.6 13.4 12.0 79 2.0 NW 15 24 8 13 - - 0.0
20/02:30pm 16.8 13.0 11.1 69 3.1 NW 22 35 12 19 - - 0.0
20/02:00pm 16.1 12.3 11.3 73 2.6 NW 22 44 12 24 - - 0.0
20/01:30pm 17.6 13.1 10.2 62 4.0 NNW 24 44 13 24 - - 0.0
20/01:15pm 17.5 12.3 10.1 62 4.0 NNW 28 52 15 28 - - 0.0
20/01:00pm 17.3 12.8 10.2 63 3.8 NW 24 50 13 27 - - 0.0
20/12:30pm 16.0 12.7 9.4 65 3.5 NNW 17 26 9 14 - - 0.0
20/12:00pm 15.7 11.8 8.7 63 3.6 NW 19 35 10 19 - - 0.0
20/11:30am 16.4 11.4 8.1 58 4.2 NNW 24 50 13 27 - - 0.0
20/11:00am 15.3 10.3 8.1 62 3.7 NNW 24 41 13 22 - - 0.0
20/10:30am 14.3 10.6 7.8 65 3.3 NNW 17 35 9 19 - - 0.0
20/10:00am 11.9 9.6 7.4 74 2.2 N 9 13 5 7 - - 0.0
20/09:30am 10.9 9.0 6.8 76 2.0 NNW 6 9 3 5 - - 0.0
20/09:00am 9.5 7.5 6.2 80 1.5 NNW 6 9 3 5 - - 0.0
20/08:30am 9.3 6.8 6.6 83 1.3 NNW 9 15 5 8 - - 0.0
20/08:00am 6.8 4.2 5.9 94 0.4 N 9 15 5 8 - - 0.0
20/07:30am 2.2 0.4 1.3 94 0.3 CALM 0 0 0 0 - - 0.0
20/07:00am 1.6 -0.7 0.6 93 0.4 NE 2 7 1 4 - - 0.0
20/06:30am 1.2 -0.8 0.2 93 0.4 CALM 0 0 0 0 - - 0.0
20/06:00am 1.2 -0.8 0.2 93 0.4 CALM 0 0 0 0 - - 0.0
20/05:30am 1.3 -0.6 0.3 93 0.4 CALM 0 0 0 0 - - 0.0
20/05:00am 1.5 -0.4 0.5 93 0.4 CALM 0 0 0 0 - - 0.0
20/04:30am 1.0 -1.0 0.0 93 0.4 CALM 0 0 0 0 - - 0.0
20/04:00am 1.0 -1.0 0.0 93 0.4 CALM 0 0 0 0 - - 0.0
20/03:30am 1.1 -0.9 0.1 93 0.4 CALM 0 0 0 0 - - 0.0
20/03:00am 1.3 -0.6 0.3 93 0.4 CALM 0 0 0 0 - - 0.0
20/02:30am 1.5 -0.4 0.5 93 0.4 CALM 0 0 0 0 - - 0.0
20/02:00am 1.2 -0.8 0.0 92 0.4 CALM 0 0 0 0 - - 0.0
20/01:30am 1.5 -0.4 0.3 92 0.4 CALM 0 0 0 0 - - 0.0
20/01:00am 1.6 -0.3 0.4 92 0.4 CALM 0 0 0 0 - - 0.0
20/12:30am 1.9 0.0 0.7 92 0.5 CALM 0 0 0 0 - - 0.0
20/12:00am 2.2 0.4 1.0 92 0.5 CALM 0 0 0 0 - - 0.0
 
Date/Time
WST
Temp
°C
App
Temp
°C
Dew
Point
°C
Rel
Hum
%
Delta-T
°C
Wind Press
QNH
hPa
Press
MSL
hPa
Rain since
9am
mm
Dir  Spd
km/h
Gust
km/h
Spd
kts
Gust
kts
19/11:30pm 2.6 0.8 1.4 92 0.5 CALM 0 0 0 0 - - 0.0
19/11:00pm 2.8 1.1 1.6 92 0.5 CALM 0 0 0 0 - - 0.0
19/10:30pm 3.2 1.5 2.0 92 0.5 CALM 0 0 0 0 - - 0.0
19/10:00pm 3.6 2.0 2.3 91 0.5 CALM 0 0 0 0 - - 0.0
19/09:30pm 4.1 2.6 2.8 91 0.5 CALM 0 0 0 0 - - 0.0
19/09:00pm 4.3 2.8 3.0 91 0.5 CALM 0 0 0 0 - - 0.0
19/08:30pm 4.9 3.5 3.6 91 0.5 CALM 0 0 0 0 - - 0.0
19/08:00pm 5.5 4.2 4.0 90 0.6 CALM 0 0 0 0 - - 0.0
19/07:30pm 6.0 4.7 4.3 89 0.7 CALM 0 0 0 0 - - 0.0
19/07:00pm 6.8 5.7 5.0 88 0.8 CALM 0 0 0 0 - - 0.0
19/06:30pm 7.8 6.8 5.4 85 1.1 CALM 0 0 0 0 - - 0.0
19/06:00pm 8.8 7.8 5.7 81 1.4 CALM 0 0 0 0 - - 0.0
19/05:30pm 10.3 9.3 5.5 72 2.2 CALM 0 0 0 0 - - 0.0
19/05:00pm 13.0 11.3 5.7 61 3.5 NNE 4 6 2 3 - - 0.0
19/04:30pm 14.4 12.0 4.4 51 4.7 N 6 9 3 5 - - 0.0
19/04:00pm 13.4 10.8 4.0 53 4.3 NNW 7 11 4 6 - - 0.0
19/03:30pm 15.1 12.6 5.0 51 4.8 NNW 7 13 4 7 - - 0.0
19/03:00pm 15.0 13.0 4.4 49 5.0 NW 4 9 2 5 - - 0.0
19/02:30pm 14.7 12.0 3.5 47 5.1 NW 7 15 4 8 - - 0.0
19/02:00pm 14.8 12.1 3.9 48 5.1 W 7 9 4 5 - - 0.0
19/01:30pm 13.3 10.7 3.1 50 4.6 NNE 6 9 3 5 - - 0.0
19/01:00pm 14.2 11.7 3.9 50 4.7 SSW 6 11 3 6 - - 0.0
19/12:30pm 13.4 11.4 4.3 54 4.2 SSE 4 9 2 5 - - 0.0
19/12:00pm 12.8 10.1 3.5 53 4.2 S 7 11 4 6 - - 0.0
19/11:30am 12.9 11.2 3.8 54 4.1 ESE 2 9 1 5 - - 0.0
19/11:00am 12.5 10.1 4.2 57 3.8 SW 6 11 3 6 - - 0.0
19/10:30am 11.6 10.5 8.6 82 1.5 WNW 4 9 2 5 - - 0.0
19/10:00am 10.2 9.7 7.8 85 1.2 CALM 0 0 0 0 - - 0.0
19/09:30am 8.2 7.6 7.3 94 0.4 CALM 0 0 0 0 - - 0.0
19/09:00am 7.5 6.8 6.8 95 0.3 CALM 0 0 0 0 - - 3.2
19/08:30am 6.6 5.7 5.9 95 0.3 CALM 0 4 0 2 - - 3.2
19/08:00am 5.3 3.3 4.6 95 0.3 E 4 9 2 5 - - 3.2
19/07:30am 5.0 3.7 4.1 94 0.4 CALM 0 0 0 0 - - 3.2
19/07:00am 4.9 3.2 4.0 94 0.4 NNE 2 7 1 4 - - 3.2
19/06:30am 4.9 3.6 4.0 94 0.4 CALM 0 0 0 0 - - 3.2
19/06:00am 4.7 3.3 3.8 94 0.4 CALM 0 0 0 0 - - 3.2
19/05:30am 4.4 3.0 3.5 94 0.4 CALM 0 0 0 0 - - 3.2
19/05:00am 4.8 3.5 3.9 94 0.4 CALM 0 0 0 0 - - 3.2
19/04:30am 4.6 3.2 3.7 94 0.4 CALM 0 0 0 0 - - 3.2
19/04:00am 4.3 2.1 3.4 94 0.4 E 4 7 2 4 - - 3.2
19/03:30am 4.2 2.7 3.2 93 0.4 CALM 0 0 0 0 - - 3.2
19/03:00am 4.3 2.9 3.3 93 0.4 CALM 0 0 0 0 - - 3.2
19/02:30am 4.8 3.4 3.8 93 0.4 CALM 0 0 0 0 - - 3.2
19/02:00am 5.0 3.7 4.0 93 0.4 CALM 0 0 0 0 - - 3.2
19/01:30am 5.2 3.9 4.2 93 0.4 CALM 0 0 0 0 - - 3.2
19/01:00am 5.9 4.8 4.9 93 0.4 CALM 0 6 0 3 - - 3.2
19/12:30am 6.6 5.6 5.6 93 0.4 CALM 0 0 0 0 - - 3.2
19/12:00am 7.0 6.1 5.9 93 0.5 CALM 0 0 0 0 - - 3.2
 
Date/Time
WST
Temp
°C
App
Temp
°C
Dew
Point
°C
Rel
Hum
%
Delta-T
°C
Wind Press
QNH
hPa
Press
MSL
hPa
Rain since
9am
mm
Dir  Spd
km/h
Gust
km/h
Spd
kts
Gust
kts
18/11:30pm 8.1 7.4 7.0 93 0.5 CALM 0 0 0 0 - - 3.2
18/11:00pm 8.6 8.0 7.5 93 0.5 CALM 0 0 0 0 - - 3.2
18/10:30pm 8.9 8.4 7.8 93 0.5 CALM 0 0 0 0 - - 3.2
18/10:00pm 8.7 8.1 7.5 92 0.6 CALM 0 0 0 0 - - 3.2
18/09:30pm 8.8 8.2 7.6 92 0.6 CALM 0 0 0 0 - - 3.2
18/09:00pm 9.3 8.9 8.1 92 0.6 CALM 0 0 0 0 - - 3.2
18/08:30pm 10.1 9.9 8.9 92 0.6 CALM 0 0 0 0 - - 3.2
18/08:00pm 10.8 10.7 9.6 92 0.6 CALM 0 0 0 0 - - 3.2
18/07:30pm 11.5 11.6 10.2 92 0.7 CALM 0 0 0 0 - - 3.2
18/07:00pm 11.7 11.9 10.4 92 0.7 CALM 0 0 0 0 - - 3.2
18/06:30pm 11.8 12.0 10.4 91 0.7 CALM 0 0 0 0 - - 3.2
18/06:00pm 11.6 11.7 10.0 90 0.8 CALM 0 0 0 0 - - 3.2
18/05:30pm 12.2 12.4 10.4 89 0.9 CALM 0 0 0 0 - - 3.2
18/05:00pm 12.9 12.9 11.0 88 1.0 WNW 2 7 1 4 - - 3.0
18/04:30pm 12.9 12.1 11.0 88 1.0 W 6 13 3 7 - - 3.0
18/04:00pm 13.4 11.9 10.4 82 1.6 W 9 19 5 10 - - 2.8
18/03:30pm 14.4 13.0 10.8 79 1.9 W 9 20 5 11 - - 2.4
18/03:00pm 14.4 13.5 11.2 81 1.7 WNW 7 13 4 7 - - 2.4
18/02:30pm 14.0 12.6 10.8 81 1.7 W 9 15 5 8 - - 2.4
18/02:00pm 13.2 11.9 11.1 87 1.1 W 9 15 5 8 - - 2.4
18/01:30pm 13.0 12.0 10.9 87 1.1 W 7 13 4 7 - - 2.2
18/01:00pm 13.0 12.0 10.9 87 1.1 W 7 11 4 6 - - 1.8
18/12:30pm 14.6 13.0 11.4 81 1.7 WNW 11 17 6 9 - - 0.0
18/12:00pm 13.7 11.9 10.7 82 1.6 WNW 11 20 6 11 - - 0.0
18/11:30am 14.9 13.4 10.5 75 2.3 W 9 17 5 9 - - 0.0
18/11:00am 13.6 11.2 10.2 80 1.8 W 13 24 7 13 - - 0.0
18/10:30am 14.2 12.6 10.2 77 2.1 WSW 9 22 5 12 - - 0.0
18/10:00am 15.0 13.7 11.4 79 1.9 WNW 9 17 5 9 - - 0.0
18/09:30am 13.8 12.8 11.1 84 1.4 WNW 7 13 4 7 - - 0.0
18/09:00am 12.7 11.7 11.1 90 0.8 NNW 7 13 4 7 - - 3.0
18/08:30am 11.8 10.9 10.5 92 0.7 NW 6 9 3 5 - - 3.0
18/08:00am 11.6 10.5 10.5 93 0.6 NW 7 13 4 7 - - 3.0
18/07:30am 11.4 9.8 10.1 92 0.7 W 9 15 5 8 - - 2.4
18/07:00am 11.4 10.1 9.8 90 0.8 NW 7 17 4 9 - - 2.0
18/06:30am 11.8 10.0 9.5 86 1.2 W 9 15 5 8 - - 1.6
18/06:00am 11.7 9.9 9.3 85 1.2 NW 9 13 5 7 - - 1.6
18/05:30am 11.5 9.6 9.1 85 1.2 NNW 9 15 5 8 - - 1.6
18/05:00am 11.2 8.9 9.1 87 1.1 NNW 11 17 6 9 - - 1.6
18/04:30am 11.4 10.0 9.5 88 1.0 NW 7 13 4 7 - - 1.6
18/04:00am 11.3 10.0 9.2 87 1.1 WNW 6 11 3 6 - - 1.4
18/03:30am 11.5 9.3 9.4 87 1.1 NW 11 20 6 11 - - 1.2
18/03:00am 11.6 9.5 9.9 89 0.9 NW 11 19 6 10 - - 1.2
18/02:30am 11.6 9.4 9.5 87 1.1 NW 11 17 6 9 - - 1.2
18/02:00am 11.6 9.8 9.5 87 1.1 NW 9 15 5 8 - - 1.2
18/01:30am 11.3 10.9 9.6 89 0.9 NW 2 7 1 4 - - 1.2
18/01:00am 11.4 10.0 9.7 89 0.9 NNW 7 13 4 7 - - 1.0
18/12:30am 11.6 10.5 9.9 89 0.9 WNW 6 11 3 6 - - 0.8
18/12:00am 11.6 10.2 9.5 87 1.1 NW 7 13 4 7 - - 0.6
 
Date/Time
WST
Temp
°C
App
Temp
°C
Dew
Point
°C
Rel
Hum
%
Delta-T
°C
Wind Press
QNH
hPa
Press
MSL
hPa
Rain since
9am
mm
Dir  Spd
km/h
Gust
km/h
Spd
kts
Gust
kts
17/11:30pm 12.3 10.6 8.4 77 2.0 WNW 7 11 4 6 - - 0.0
17/11:00pm 12.9 10.7 7.8 71 2.5 NW 9 17 5 9 - - 0.0
17/10:30pm 12.5 10.1 8.6 77 2.0 NW 11 15 6 8 - - 0.0
17/10:00pm 12.9 10.7 8.0 72 2.4 W 9 19 5 10 - - 0.0
17/09:30pm 13.1 10.6 8.2 72 2.5 NW 11 26 6 14 - - 0.0
17/09:00pm 12.8 10.7 8.3 74 2.3 NW 9 17 5 9 - - 0.0
17/08:30pm 12.7 10.6 8.2 74 2.2 WNW 9 15 5 8 - - 0.0

Other Formats:

Comma delimited format used in spreadsheet applications
http://www.bom.gov.au/fwo/IDW60801/IDW60801.95621.axf

JavaScript Object Notation format (JSON) in row-major order
http://www.bom.gov.au/fwo/IDW60801/IDW60801.95621.json